createdAt,value
2022-10-13T00:01:09.862Z,97130.59
2022-10-13T00:03:40.352Z,97113.38
2022-10-13T00:06:10.184Z,97117.19
2022-10-13T00:08:40.481Z,97129.09
2022-10-13T00:11:13.741Z,97129.88
2022-10-13T00:13:42.881Z,97132.97
2022-10-13T00:16:10.787Z,97152.56
2022-10-13T00:18:39.319Z,97178.66
2022-10-13T00:21:16.007Z,97172.97
2022-10-13T00:23:43.392Z,97195.84
2022-10-13T00:26:12.306Z,97211.81
2022-10-13T00:28:39.476Z,97216.31
2022-10-13T00:31:16.476Z,97203.47
2022-10-13T00:33:43.411Z,97224.84
2022-10-13T00:36:10.122Z,97218.44
2022-10-13T00:38:36.976Z,97216.03
2022-10-13T00:41:04.081Z,97219.34
2022-10-13T00:43:57.099Z,97236.19
2022-10-13T00:46:26.519Z,97246.72
2022-10-13T00:48:54.649Z,97252.28
2022-10-13T00:51:24.439Z,97279.19
2022-10-13T00:53:52.901Z,97304.47
2022-10-13T00:56:21.869Z,97298.22
2022-10-13T00:58:49.712Z,97303.38
2022-10-13T01:01:16.955Z,97310.56
2022-10-13T01:03:44.267Z,97299.22
2022-10-13T01:06:12.820Z,97290.94
2022-10-13T01:08:39.533Z,97311.47
2022-10-13T01:11:16.009Z,97309.63
2022-10-13T01:14:10.428Z,97310.94
2022-10-13T01:16:58.090Z,97305.88
2022-10-13T01:19:57.934Z,97284.97
2022-10-13T01:22:57.366Z,97287.31
2022-10-13T01:25:26.960Z,97268.53
2022-10-13T01:28:05.515Z,97271.41
2022-10-13T01:30:41.107Z,97259.56
2022-10-13T01:33:13.493Z,97242.78
2022-10-13T01:35:57.081Z,97240.50
2022-10-13T01:38:57.356Z,97225.34
2022-10-13T01:41:35.755Z,97207.34
2022-10-13T01:44:25.420Z,97210.84
2022-10-13T01:46:53.372Z,97206.34
2022-10-13T01:49:27.196Z,97201.06
2022-10-13T01:51:56.689Z,97196.22
2022-10-13T01:54:23.295Z,97170.94
2022-10-13T01:56:54.504Z,97189.63
2022-10-13T01:59:22.735Z,97197.13
2022-10-13T02:02:03.531Z,97175.66
2022-10-13T02:05:01.546Z,97196.50
2022-10-13T02:07:49.089Z,97167.38
2022-10-13T02:10:55.896Z,97173.38
2022-10-13T02:13:26.039Z,97176.47
2022-10-13T02:15:57.041Z,97163.59
2022-10-13T02:18:28.272Z,97178.50
2022-10-13T02:20:55.344Z,97158.56
2022-10-13T02:23:24.150Z,97149.13
2022-10-13T02:25:51.197Z,97162.84
2022-10-13T02:28:19.141Z,97146.28
2022-10-13T02:30:47.103Z,97123.75
2022-10-13T02:33:14.616Z,97120.09
2022-10-13T02:35:42.119Z,97113.00
2022-10-13T02:38:08.974Z,97085.81
2022-10-13T02:40:35.671Z,97087.13
2022-10-13T02:43:02.421Z,97063.44
2022-10-13T02:45:28.994Z,97039.81
2022-10-13T02:47:58.250Z,97035.09
2022-10-13T02:50:24.986Z,97008.72
2022-10-13T02:52:53.787Z,96988.88
2022-10-13T02:55:20.420Z,96985.03
2022-10-13T02:57:47.233Z,96966.47
2022-10-13T03:00:14.940Z,96956.66
2022-10-13T03:02:41.845Z,96954.25
2022-10-13T03:05:08.979Z,96944.31
2022-10-13T03:07:36.316Z,96936.78
2022-10-13T03:10:03.822Z,96930.88
2022-10-13T03:12:30.517Z,96931.34
2022-10-13T03:14:57.539Z,96930.66
2022-10-13T03:17:24.091Z,96930.94
2022-10-13T03:19:52.743Z,96932.88
2022-10-13T03:22:19.675Z,96931.81
2022-10-13T03:24:46.587Z,96942.09
2022-10-13T03:27:13.243Z,96930.56
2022-10-13T03:29:40.563Z,96916.38
2022-10-13T03:32:07.235Z,96919.75
2022-10-13T03:34:33.893Z,96915.13
2022-10-13T03:37:00.462Z,96909.84
2022-10-13T03:39:27.067Z,96921.34
2022-10-13T03:41:53.647Z,96919.41
2022-10-13T03:44:20.443Z,96912.25
2022-10-13T03:46:47.045Z,96915.19
2022-10-13T03:49:13.685Z,96919.16
2022-10-13T03:51:40.625Z,96913.88
2022-10-13T03:54:09.419Z,96922.69
2022-10-13T03:56:36.384Z,96914.56
2022-10-13T03:59:04.965Z,96910.03
2022-10-13T04:01:32.581Z,96926.13
2022-10-13T04:04:02.256Z,96923.84
2022-10-13T04:06:30.554Z,96919.31
2022-10-13T04:08:57.877Z,96930.38
2022-10-13T04:11:24.533Z,96928.03
2022-10-13T04:13:51.807Z,96928.22
2022-10-13T04:16:22.012Z,96936.91
2022-10-13T04:18:54.941Z,96939.94
2022-10-13T04:21:22.209Z,96926.25
2022-10-13T04:23:49.300Z,96943.09
2022-10-13T04:26:22.036Z,96938.38
2022-10-13T04:28:50.603Z,96941.69
2022-10-13T04:31:17.725Z,96960.09
2022-10-13T04:33:45.216Z,96954.25
2022-10-13T04:36:13.986Z,96945.56
2022-10-13T04:38:41.479Z,96950.06
2022-10-13T04:41:11.812Z,96950.84
2022-10-13T04:43:38.480Z,96942.09
2022-10-13T04:46:19.764Z,96944.59
2022-10-13T04:48:47.428Z,96930.69
2022-10-13T04:51:19.172Z,96933.09
2022-10-13T04:53:46.261Z,96937.56
2022-10-13T04:56:16.015Z,96929.16
2022-10-13T04:58:44.256Z,96932.31
2022-10-13T05:01:21.223Z,96929.78
2022-10-13T05:03:51.571Z,96911.75
2022-10-13T05:06:23.012Z,96924.50
2022-10-13T05:08:53.147Z,96922.44
2022-10-13T05:11:20.705Z,96920.44
2022-10-13T05:13:48.596Z,96907.47
2022-10-13T05:16:17.291Z,96909.75
2022-10-13T05:18:44.457Z,96906.16
2022-10-13T05:21:16.952Z,96904.69
2022-10-13T05:23:45.501Z,96905.16
2022-10-13T05:26:16.910Z,96906.16
2022-10-13T05:28:44.283Z,96889.56
2022-10-13T05:31:12.656Z,96890.50
2022-10-13T05:33:39.617Z,96898.13
2022-10-13T05:36:08.654Z,96890.72
2022-10-13T05:38:35.230Z,96880.84
2022-10-13T05:41:14.951Z,96891.69
2022-10-13T05:43:42.111Z,96885.03
2022-10-13T05:46:09.463Z,96881.25
2022-10-13T05:48:39.168Z,96879.84
2022-10-13T05:51:17.356Z,96901.44
2022-10-13T05:53:57.948Z,96902.56
2022-10-13T05:56:30.244Z,96887.56
2022-10-13T05:59:01.668Z,96894.56
2022-10-13T06:01:33.051Z,96910.00
2022-10-13T06:04:04.278Z,96899.16
2022-10-13T06:06:31.875Z,96891.97
2022-10-13T06:09:03.420Z,96910.44
2022-10-13T06:11:32.251Z,96905.41
2022-10-13T06:13:59.175Z,96905.59
2022-10-13T06:16:26.489Z,96921.78
2022-10-13T06:18:53.119Z,96932.56
2022-10-13T06:21:19.785Z,96923.34
2022-10-13T06:23:46.391Z,96927.31
2022-10-13T06:26:13.063Z,96949.34
2022-10-13T06:28:39.745Z,96951.28
2022-10-13T06:31:07.175Z,96939.47
2022-10-13T06:33:34.726Z,96955.50
2022-10-13T06:36:03.386Z,96992.53
2022-10-13T06:38:30.224Z,97001.72
2022-10-13T06:41:03.165Z,96983.75
2022-10-13T06:43:38.729Z,97013.88
2022-10-13T06:46:07.201Z,97014.91
2022-10-13T06:48:33.861Z,97013.53
2022-10-13T06:51:04.923Z,97024.78
2022-10-13T06:53:32.066Z,97032.44
2022-10-13T06:55:59.787Z,97025.22
2022-10-13T06:58:26.688Z,97041.56
2022-10-13T07:00:53.981Z,97058.53
2022-10-13T07:03:21.284Z,97057.06
2022-10-13T07:05:47.940Z,97057.66
2022-10-13T07:08:15.831Z,97087.47
2022-10-13T07:10:45.277Z,97100.53
2022-10-13T07:13:11.875Z,97095.66
2022-10-13T07:15:40.299Z,97107.34
2022-10-13T07:18:07.627Z,97133.28
2022-10-13T07:20:34.764Z,97125.19
2022-10-13T07:23:01.688Z,97126.63
2022-10-13T07:25:30.539Z,97163.44
2022-10-13T07:27:59.440Z,97180.47
2022-10-13T07:30:26.876Z,97171.03
2022-10-13T07:32:53.912Z,97202.13
2022-10-13T07:35:22.614Z,97222.66
2022-10-13T07:37:54.055Z,97235.38
2022-10-13T07:40:20.774Z,97272.84
2022-10-13T07:42:47.536Z,97280.63
2022-10-13T07:45:14.277Z,97288.97
2022-10-13T07:47:40.832Z,97291.53
2022-10-13T07:50:08.013Z,97343.84
2022-10-13T07:52:36.220Z,97356.50
2022-10-13T07:55:03.038Z,97391.47
2022-10-13T07:57:29.621Z,97418.72
2022-10-13T07:59:56.299Z,97413.53
2022-10-13T08:02:23.012Z,97476.38
2022-10-13T08:04:51.136Z,97503.66
2022-10-13T08:07:18.842Z,97512.38
2022-10-13T08:09:47.833Z,97556.53
2022-10-13T08:12:14.431Z,97570.81
2022-10-13T08:14:42.030Z,97613.16
2022-10-13T08:17:08.903Z,97639.50
2022-10-13T08:19:36.132Z,97630.13
2022-10-13T08:22:05.546Z,97668.09
2022-10-13T08:24:36.007Z,97713.31
2022-10-13T08:27:02.807Z,97732.50
2022-10-13T08:29:29.446Z,97783.22
2022-10-13T08:31:56.126Z,97780.81
2022-10-13T08:34:24.429Z,97813.50
2022-10-13T08:36:54.503Z,97829.41
2022-10-13T08:39:22.536Z,97819.34
2022-10-13T08:41:49.852Z,97872.59
2022-10-13T08:47:49.029Z,97905.72
2022-10-13T08:50:25.635Z,97906.03
2022-10-13T08:53:05.355Z,97885.28
2022-10-13T08:55:55.631Z,97915.03
2022-10-13T08:58:28.211Z,97907.94
2022-10-13T09:01:00.930Z,97932.66
2022-10-13T09:03:30.402Z,97938.28
2022-10-13T09:06:11.707Z,97928.28
2022-10-13T09:08:44.196Z,97953.75
2022-10-13T09:11:12.849Z,97950.22
2022-10-13T09:13:39.460Z,97985.84
2022-10-13T09:16:06.645Z,97979.56
2022-10-13T09:18:34.864Z,97988.66
2022-10-13T09:21:19.598Z,98019.88
2022-10-13T09:23:48.764Z,98035.50
2022-10-13T09:26:22.204Z,98046.81
2022-10-13T09:28:49.838Z,98055.75
2022-10-13T09:31:27.736Z,98070.53
2022-10-13T09:34:03.333Z,98070.28
2022-10-13T09:36:31.321Z,98067.34
2022-10-13T09:39:15.777Z,98088.56
2022-10-13T09:41:43.748Z,98072.41
2022-10-13T09:44:17.698Z,98079.53
2022-10-13T09:46:49.963Z,98135.72
2022-10-13T09:49:41.560Z,98133.88
2022-10-13T09:52:13.940Z,98151.94
2022-10-13T09:54:40.456Z,98151.53
2022-10-13T09:57:23.404Z,98208.44
2022-10-13T09:59:52.635Z,98208.34
2022-10-13T10:02:29.246Z,98200.72
2022-10-13T10:05:01.089Z,98250.03
2022-10-13T10:07:33.111Z,98256.06
2022-10-13T10:10:15.736Z,98264.69
2022-10-13T10:12:43.796Z,98262.56
2022-10-13T10:15:20.422Z,98265.66
2022-10-13T10:17:54.621Z,98275.84
2022-10-13T10:20:51.500Z,98259.59
2022-10-13T10:23:40.251Z,98292.81
2022-10-13T10:26:18.161Z,98294.56
2022-10-13T10:29:16.495Z,98276.75
2022-10-13T10:32:04.468Z,98273.66
2022-10-13T10:34:53.692Z,98260.78
2022-10-13T10:37:38.272Z,98245.31
2022-10-13T10:40:39.249Z,98241.03
2022-10-13T10:43:43.287Z,98271.34
2022-10-13T10:46:18.182Z,98257.28
2022-10-13T10:48:47.044Z,98260.81
2022-10-13T10:51:16.491Z,98272.97
2022-10-13T10:53:59.919Z,98284.31
2022-10-13T10:56:44.300Z,98298.78
2022-10-13T10:59:29.392Z,98283.03
2022-10-13T11:02:16.197Z,98277.94
2022-10-13T11:04:45.659Z,98277.16
2022-10-13T11:07:14.641Z,98259.97
2022-10-13T11:09:41.286Z,98259.38
2022-10-13T11:12:22.809Z,98243.19
2022-10-13T11:14:55.599Z,98250.94
2022-10-13T11:17:38.531Z,98272.75
2022-10-13T11:20:17.998Z,98256.84
2022-10-13T11:23:04.689Z,98286.03
2022-10-13T11:25:37.215Z,98308.06
2022-10-13T11:28:22.128Z,98303.06
2022-10-13T11:30:53.257Z,98310.22
2022-10-13T11:33:34.752Z,98319.25
2022-10-13T11:36:32.462Z,98335.34
2022-10-13T11:42:11.508Z,98326.31
2022-10-13T11:44:57.544Z,98342.78
2022-10-13T11:47:48.981Z,98320.50
2022-10-13T11:50:44.291Z,98339.03
2022-10-13T11:53:13.739Z,98350.31
2022-10-13T11:55:55.247Z,98349.22
2022-10-13T11:58:27.841Z,98346.63
2022-10-13T12:01:01.916Z,98360.50
2022-10-13T12:03:41.043Z,98359.69
2022-10-13T12:06:33.769Z,98358.06
2022-10-13T12:09:25.855Z,98360.94
2022-10-13T12:12:04.657Z,98345.16
2022-10-13T12:17:23.467Z,98377.47
2022-10-13T12:19:51.067Z,98356.34
2022-10-13T12:22:17.797Z,98344.28
2022-10-13T12:25:03.605Z,98327.97
2022-10-13T12:27:32.856Z,98340.44
2022-10-13T12:30:00.909Z,98340.19
2022-10-13T12:32:30.188Z,98337.31
2022-10-13T12:34:56.957Z,98356.34
2022-10-13T12:37:31.080Z,98351.31
2022-10-13T12:39:58.579Z,98348.50
2022-10-13T12:42:37.859Z,98340.00
2022-10-13T12:45:05.223Z,98341.31
2022-10-13T12:47:44.684Z,98350.47
2022-10-13T12:50:25.756Z,98344.16
2022-10-13T12:52:55.020Z,98332.41
2022-10-13T12:55:23.404Z,98323.16
2022-10-13T12:57:51.674Z,98311.84
2022-10-13T13:00:26.498Z,98304.47
2022-10-13T13:02:56.496Z,98301.78
2022-10-13T13:05:52.360Z,98305.47
2022-10-13T13:08:26.057Z,98311.94
2022-10-13T13:11:04.964Z,98303.88
2022-10-13T13:13:33.642Z,98289.41
2022-10-13T13:16:18.560Z,98286.91
2022-10-13T13:18:46.880Z,98268.22
2022-10-13T13:21:15.570Z,98263.50
2022-10-13T13:23:51.176Z,98251.50
2022-10-13T13:26:25.147Z,98241.22
2022-10-13T13:28:56.686Z,98247.72
2022-10-13T13:31:25.899Z,98227.22
2022-10-13T13:33:52.679Z,98198.56
2022-10-13T13:36:24.858Z,98224.41
2022-10-13T13:38:52.863Z,98164.94
2022-10-13T13:41:19.863Z,98100.25
2022-10-13T13:43:46.794Z,98117.22
2022-10-13T13:46:22.269Z,98014.53
2022-10-13T13:48:49.479Z,97978.09
2022-10-13T13:51:16.966Z,98002.91
2022-10-13T13:53:43.604Z,97949.72
2022-10-13T13:56:14.361Z,97924.06
2022-10-13T13:58:41.028Z,97914.69
2022-10-13T14:01:08.774Z,97877.06
2022-10-13T14:03:35.394Z,97885.09
2022-10-13T14:06:02.823Z,97863.03
2022-10-13T14:08:35.198Z,97823.19
2022-10-13T14:11:07.843Z,97840.28
2022-10-13T14:13:35.637Z,97827.66
2022-10-13T14:16:03.711Z,97782.69
2022-10-13T14:18:31.112Z,97787.69
2022-10-13T14:20:57.991Z,97776.91
2022-10-13T14:23:24.640Z,97748.59
2022-10-13T14:25:51.328Z,97768.94
2022-10-13T14:28:18.602Z,97743.75
2022-10-13T14:30:45.395Z,97747.16
2022-10-13T14:33:12.172Z,97762.84
2022-10-13T14:35:38.796Z,97740.66
2022-10-13T14:38:05.511Z,97739.28
2022-10-13T14:40:32.117Z,97746.16
2022-10-13T14:42:58.744Z,97743.75
2022-10-13T14:45:27.663Z,97732.25
2022-10-13T14:47:54.217Z,97741.06
2022-10-13T14:50:20.789Z,97743.88
2022-10-13T14:52:47.341Z,97737.59
2022-10-13T14:55:13.936Z,97743.28
2022-10-13T14:57:40.588Z,97741.31
2022-10-13T15:00:09.835Z,97728.13
2022-10-13T15:02:36.590Z,97734.97
2022-10-13T15:05:03.283Z,97741.50
2022-10-13T15:07:31.301Z,97761.00
2022-10-13T15:10:05.309Z,97744.03
2022-10-13T15:12:33.047Z,97737.69
2022-10-13T15:15:02.036Z,97746.78
2022-10-13T15:17:30.734Z,97752.91
2022-10-13T15:19:57.329Z,97732.84
2022-10-13T15:22:24.264Z,97729.19
2022-10-13T15:24:51.125Z,97731.56
2022-10-13T15:27:17.757Z,97718.28
2022-10-13T15:29:44.479Z,97717.41
2022-10-13T15:32:18.061Z,97723.56
2022-10-13T15:34:44.953Z,97704.47
2022-10-13T15:37:11.978Z,97703.22
2022-10-13T15:39:38.842Z,97709.66
2022-10-13T15:42:08.164Z,97719.09
2022-10-13T15:44:57.316Z,97730.81
2022-10-13T15:47:21.586Z,97725.38
2022-10-13T15:49:48.131Z,97724.66
2022-10-13T15:52:14.733Z,97725.53
2022-10-13T15:54:41.347Z,97733.38
2022-10-13T15:57:07.940Z,97738.00
2022-10-13T15:59:34.619Z,97742.31
2022-10-13T16:02:01.260Z,97741.97
2022-10-13T16:04:27.885Z,97752.44
2022-10-13T16:06:55.135Z,97755.94
2022-10-13T16:09:22.539Z,97754.00
2022-10-13T16:11:49.296Z,97758.00
2022-10-13T16:14:15.933Z,97751.41
2022-10-13T16:16:42.518Z,97757.66
2022-10-13T16:19:09.213Z,97756.00
2022-10-13T16:21:35.851Z,97751.72
2022-10-13T16:24:02.611Z,97747.06
2022-10-13T16:26:31.503Z,97743.53
2022-10-13T16:28:58.209Z,97744.25
2022-10-13T16:31:24.844Z,97743.53
2022-10-13T16:33:51.458Z,97738.81
2022-10-13T16:36:20.129Z,97736.09
2022-10-13T16:38:47.280Z,97740.81
2022-10-13T16:41:16.993Z,97745.84
2022-10-13T16:43:45.045Z,97743.53
2022-10-13T16:46:14.338Z,97738.47
2022-10-13T16:48:42.727Z,97741.13
2022-10-13T16:51:14.895Z,97740.28
2022-10-13T16:53:41.829Z,97734.13
2022-10-13T16:56:09.142Z,97731.06
2022-10-13T16:58:35.878Z,97724.81
2022-10-13T17:01:05.348Z,97733.38
2022-10-13T17:03:32.291Z,97736.41
2022-10-13T17:05:59.609Z,97728.59
2022-10-13T17:08:26.245Z,97730.09
2022-10-13T17:10:58.110Z,97722.22
2022-10-13T17:13:25.178Z,97719.09
2022-10-13T17:15:53.743Z,97724.09
2022-10-13T17:18:20.516Z,97725.25
2022-10-13T17:21:00.610Z,97724.34
2022-10-13T17:23:30.761Z,97723.91
2022-10-13T17:26:04.498Z,97738.94
2022-10-13T17:28:31.069Z,97731.94
2022-10-13T17:31:04.504Z,97740.03
2022-10-13T17:33:35.739Z,97737.16
2022-10-13T17:36:07.568Z,97737.97
2022-10-13T17:38:34.477Z,97730.16
2022-10-13T17:41:03.276Z,97739.47
2022-10-13T17:43:30.637Z,97735.44
2022-10-13T17:46:35.582Z,97734.66
2022-10-13T17:49:05.275Z,97724.44
2022-10-13T17:51:31.855Z,97722.16
2022-10-13T17:54:00.163Z,97715.13
2022-10-13T17:56:27.517Z,97716.72
2022-10-13T17:58:54.761Z,97700.81
2022-10-13T18:01:34.411Z,97702.75
2022-10-13T18:04:06.589Z,97701.19
2022-10-13T18:06:44.120Z,97704.25
2022-10-13T18:09:17.407Z,97705.84
2022-10-13T18:11:50.198Z,97705.09
2022-10-13T18:14:19.303Z,97702.38
2022-10-13T18:16:46.761Z,97702.75
2022-10-13T18:19:13.639Z,97701.97
2022-10-13T18:21:40.407Z,97700.09
2022-10-13T18:24:07.733Z,97703.66
2022-10-13T18:26:39.601Z,97703.66
2022-10-13T18:29:07.762Z,97709.47
2022-10-13T18:31:38.644Z,97702.81
2022-10-13T18:34:07.977Z,97704.31
2022-10-13T18:36:42.507Z,97698.50
2022-10-13T18:39:12.083Z,97701.75
2022-10-13T18:41:39.564Z,97685.44
2022-10-13T18:44:07.054Z,97678.13
2022-10-13T18:46:38.084Z,97676.19
2022-10-13T18:49:06.226Z,97665.31
2022-10-13T18:51:36.202Z,97665.31
2022-10-13T18:54:04.656Z,97655.25
2022-10-13T18:56:32.576Z,97661.47
2022-10-13T18:59:01.099Z,97656.81
2022-10-13T19:01:32.401Z,97646.72
2022-10-13T19:03:59.624Z,97649.44
2022-10-13T19:06:30.481Z,97651.44
2022-10-13T19:09:03.761Z,97658.81
2022-10-13T19:11:32.690Z,97663.13
2022-10-13T19:14:03.187Z,97658.03
2022-10-13T19:16:33.488Z,97662.31
2022-10-13T19:19:00.113Z,97660.31
2022-10-13T19:21:26.800Z,97668.00
2022-10-13T19:23:55.500Z,97604.44
2022-10-13T19:26:29.244Z,97584.56
2022-10-13T19:29:00.527Z,97581.25
2022-10-13T19:31:29.328Z,97586.47
2022-10-13T19:33:56.444Z,97589.25
2022-10-13T19:36:27.177Z,97597.53
2022-10-13T19:38:54.813Z,97589.47
2022-10-13T19:41:21.621Z,97591.47
2022-10-13T19:43:49.356Z,97600.13
2022-10-13T19:46:16.876Z,97604.06
2022-10-13T19:48:44.874Z,97607.19
2022-10-13T19:51:12.259Z,97611.50
2022-10-13T19:53:40.378Z,97614.63
2022-10-13T19:56:07.768Z,97620.50
2022-10-13T19:58:34.993Z,97618.28
2022-10-13T20:01:04.377Z,97619.50
2022-10-13T20:03:31.393Z,97618.78
2022-10-13T20:05:58.749Z,97619.97
2022-10-13T20:08:25.491Z,97631.63
2022-10-13T20:10:52.123Z,97629.66
2022-10-13T20:13:18.847Z,97633.19
2022-10-13T20:15:45.916Z,97633.19
2022-10-13T20:18:13.394Z,97633.19
2022-10-13T20:20:41.311Z,97632.56
2022-10-13T20:23:11.063Z,97569.59
2022-10-13T20:25:38.437Z,97512.88
2022-10-13T20:28:07.988Z,97490.66
2022-10-13T20:30:35.064Z,97488.91
2022-10-13T20:33:01.751Z,97480.81
2022-10-13T20:35:28.408Z,97483.94
2022-10-13T20:37:55.264Z,97392.53
2022-10-13T20:40:22.261Z,97335.16
2022-10-13T20:42:50.768Z,97331.88
2022-10-13T20:45:17.808Z,97268.97
2022-10-13T20:47:44.509Z,97187.09
2022-10-13T20:50:11.292Z,97183.44
2022-10-13T20:52:38.641Z,97133.06
2022-10-13T20:55:05.491Z,97069.00
2022-10-13T20:57:32.677Z,97027.38
2022-10-13T20:59:59.256Z,97029.91
2022-10-13T21:02:25.877Z,97049.41
2022-10-13T21:04:52.468Z,97042.78
2022-10-13T21:07:19.981Z,96995.66
2022-10-13T21:09:50.198Z,96965.97
2022-10-13T21:12:19.733Z,96962.00
2022-10-13T21:14:46.471Z,96945.13
2022-10-13T21:17:13.125Z,96917.00
2022-10-13T21:19:39.675Z,96902.19
2022-10-13T21:22:06.319Z,96861.69
2022-10-13T21:24:32.906Z,96834.72
2022-10-13T21:27:01.759Z,96823.84
2022-10-13T21:29:28.595Z,96806.94
2022-10-13T21:31:57.293Z,96783.34
2022-10-13T21:34:23.895Z,96763.31
2022-10-13T21:36:50.489Z,96736.78
2022-10-13T21:39:17.063Z,96714.31
2022-10-13T21:41:43.757Z,96691.97
2022-10-13T21:44:13.985Z,96698.78
2022-10-13T21:46:40.542Z,96683.59
2022-10-13T21:49:07.288Z,96668.59
2022-10-13T21:51:36.709Z,96683.13
2022-10-13T21:54:09.721Z,96674.41
2022-10-13T21:56:37.297Z,96654.81
2022-10-13T21:59:04.798Z,96659.66
2022-10-13T22:01:31.741Z,96677.94
2022-10-13T22:04:00.670Z,96676.41
2022-10-13T22:06:29.735Z,96672.56
2022-10-13T22:08:58.504Z,96658.47
2022-10-13T22:11:31.871Z,96635.31
2022-10-13T22:13:59.164Z,96610.38
2022-10-13T22:16:35.821Z,96614.84
2022-10-13T22:19:03.061Z,96598.59
2022-10-13T22:21:33.516Z,96581.78
2022-10-13T22:24:08.019Z,96594.00
2022-10-13T22:26:37.729Z,96588.44
2022-10-13T22:29:06.219Z,96558.03
2022-10-13T22:31:33.687Z,96557.03
2022-10-13T22:34:01.596Z,96564.34
2022-10-13T22:36:29.469Z,96550.81
2022-10-13T22:38:58.591Z,96530.44
2022-10-13T22:41:25.626Z,96540.34
2022-10-13T22:43:53.893Z,96541.84
2022-10-13T22:46:23.391Z,96518.00
2022-10-13T22:48:50.899Z,96520.91
2022-10-13T22:51:20.353Z,96527.78
2022-10-13T22:53:47.776Z,96503.91
2022-10-13T22:56:17.537Z,96498.22
2022-10-13T22:58:44.593Z,96495.47
2022-10-13T23:01:14.736Z,96478.47
2022-10-13T23:03:41.745Z,96470.09
2022-10-13T23:06:15.317Z,96476.97
2022-10-13T23:08:42.137Z,96464.53
2022-10-13T23:11:09.320Z,96454.63
2022-10-13T23:13:36.018Z,96456.16
2022-10-13T23:16:08.885Z,96458.41
2022-10-13T23:18:35.586Z,96438.38
2022-10-13T23:21:06.779Z,96441.13
2022-10-13T23:23:34.066Z,96453.81
2022-10-13T23:26:09.750Z,96443.81
2022-10-13T23:28:36.865Z,96444.22
2022-10-13T23:31:05.663Z,96454.53
2022-10-13T23:33:35.237Z,96444.88
2022-10-13T23:36:02.834Z,96430.25
2022-10-13T23:38:32.915Z,96436.78
2022-10-13T23:41:13.532Z,96434.44
2022-10-13T23:43:41.105Z,96414.41
2022-10-13T23:46:10.549Z,96419.38
2022-10-13T23:48:38.149Z,96428.25
2022-10-13T23:51:24.483Z,96412.06
2022-10-13T23:53:53.876Z,96417.44
2022-10-13T23:56:20.805Z,96414.28
2022-10-13T23:58:49.907Z,96407.38
